BNP weather

Bannu Airport
Bannu, North-West Frontier, Pakistan

Public forecast

Using degrees Celsius for public forecast. Weather courtesy of forecast.io.

METAR (pilot weather report)

Closest report is Peshawar International Airport, 78.7 nm (145.8 km) NE. Retrieved 2019/08/17 12:00 UTC (30 minutes ago):

OPPS 171200Z 05006KT 9999 FEW040 32/22 Q1001

TAF (pilot weather forecast)

Closest forecast is Peshawar International Airport, 78.7 nm (145.8 km) NE. Retrieved 2019/08/17 12:00 UTC (30 minutes ago):

TAF OPPS 170940Z 1712/1818 05015KT 4000 HZ SCT040 SCT100 TEMPO 1722/1802 13010G20KT VCTS FEW030TCU/CB SCT040 SCT100 1809/1812 VCTS FEW030TCU/CB TEMPO 1815/1818 13015G25KT VCTS FEW030TCU/CB